■掲示板に戻る■ レスを全部読む 最新レス50
函館市スレッド★102
185 名前: なまら名無し 投稿日: 2017/01/09(月) 18:49:51 ID:iQ8JC5ew
>>184
飛行場予報(TAF)
発表時間: 1/09 14:14 JST (1/09 05:14 UTC)
予報対象時間: 9日15時 JST 〜 10日21時 JST
風向・風速 西北西 6m/s
視程 10km以上
雲 少しの雲 雲底高度 240m
全天の8割程度の雲 雲底高度 610m
9日21時 JST 〜 9日23時 JST に徐々に
風向・風速 西北西 9m/s 瞬間風速 14m/s
9日21時 JST 〜 10日3時 JST に一時的に
視程 2,000m
天気現象 弱いしゅう雪
10日3時 JST 〜 10日12時 JST に一時的に
視程 1,500m
天気現象 弱いしゅう雪
雲 少しの雲 雲底高度 150m
全天の8割程度の雲 雲底高度 240m
10日12時 JST 〜 10日21時 JST に一時的に
視程 700m
天気現象 しゅう雪
雲 全天を覆う雲 鉛直視程 150m
TAF RJCH 090514Z 0906/1012 29012KT 9999 FEW008 BKN020
BECMG 0912/0914 29017G27KT
TEMPO 0912/0918 2000 -SHSN
TEMPO 0918/1003 1500 -SHSN FEW005 BKN008
TEMPO 1003/1012 0700 SHSN VV005

read.cgi V2.1(PC) 2013/05